Time;durP1;ratioP1;P1;durP2;ratioP2;P2;SDS_P1;SDS_P2;PMS_P1;PMS_P2;Temp;Humidity;BMP_temperature;BMP_pressure;BME280_temperature;BME280_humidity;BME280_pressure;Samples;Min_cycle;Max_cycle;Signal;HPM_P1;HPM_P2
2022/10/19 00:01:50;;;;;;;7.85;3.28;;;12.20;72.20;;;;;;5089989;28;20078;-82
2022/10/19 00:04:15;;;;;;;5.63;3.17;;;12.20;72.00;;;;;;5056988;28;20047;-82
2022/10/19 00:06:41;;;;;;;5.82;3.42;;;12.10;71.60;;;;;;5055990;28;20020;-82
2022/10/19 00:09:18;;;;;;;5.90;3.47;;;12.10;71.80;;;;;;5055816;28;20435;-82
2022/10/19 00:11:46;;;;;;;4.15;2.85;;;12.10;71.90;;;;;;5072041;28;20028;-82
2022/10/19 00:14:16;;;;;;;5.28;2.75;;;11.90;71.90;;;;;;5073690;28;20028;-83
2022/10/19 00:16:43;;;;;;;6.40;2.70;;;11.90;71.80;;;;;;5073344;28;20041;-83
2022/10/19 00:19:13;;;;;;;4.72;1.95;;;11.90;71.90;;;;;;5089434;28;20474;-82
2022/10/19 00:21:39;;;;;;;5.68;2.60;;;11.80;71.80;;;;;;5089504;28;20009;-82
2022/10/19 00:24:05;;;;;;;4.63;2.17;;;11.80;71.60;;;;;;5090308;28;20017;-82
2022/10/19 00:26:32;;;;;;;6.55;2.90;;;11.70;71.60;;;;;;5072361;28;20549;-82
2022/10/19 00:28:57;;;;;;;3.67;2.65;;;11.70;72.30;;;;;;5072700;28;20055;-82
2022/10/19 00:31:24;;;;;;;6.68;2.42;;;11.60;72.70;;;;;;5055258;28;20032;-82
2022/10/19 00:33:50;;;;;;;3.70;2.40;;;11.50;73.10;;;;;;5088560;28;20485;-82
2022/10/19 00:36:22;;;;;;;5.75;3.08;;;11.50;73.20;;;;;;5055219;28;20124;-82
2022/10/19 00:38:48;;;;;;;5.45;2.20;;;11.70;73.20;;;;;;5089574;28;20025;-82
2022/10/19 00:41:15;;;;;;;8.15;2.47;;;11.70;73.10;;;;;;5055847;28;20094;-82
2022/10/19 00:43:59;;;;;;;4.70;2.50;;;11.70;72.60;;;;;;5090107;28;20029;-82
2022/10/19 00:46:27;;;;;;;4.45;2.15;;;11.70;72.60;;;;;;5072427;28;20021;-82
2022/10/19 00:48:58;;;;;;;4.50;2.38;;;11.80;72.70;;;;;;5056720;28;20085;-82
2022/10/19 00:51:27;;;;;;;4.97;2.70;;;11.70;72.90;;;;;;5090636;28;20025;-82
2022/10/19 00:53:55;;;;;;;5.78;2.38;;;11.70;73.00;;;;;;5091581;28;20025;-82
2022/10/19 00:56:21;;;;;;;5.50;2.55;;;11.80;73.10;;;;;;5073321;28;20127;-82
2022/10/19 00:58:47;;;;;;;4.45;2.65;;;11.80;72.90;;;;;;5074298;28;20505;-82
2022/10/19 01:01:17;;;;;;;5.68;2.50;;;11.80;72.90;;;;;;5057819;28;20028;-82
2022/10/19 01:03:44;;;;;;;4.38;2.50;;;11.70;72.40;;;;;;5092469;28;20041;-82
2022/10/19 01:06:12;;;;;;;6.82;2.65;;;11.50;72.70;;;;;;5057373;28;20063;-82
2022/10/19 01:08:38;;;;;;;6.00;2.78;;;11.60;73.30;;;;;;5074086;28;20067;-82
2022/10/19 01:11:22;;;;;;;3.17;1.98;;;11.60;73.30;;;;;;5090225;28;20078;-81
2022/10/19 01:14:22;;;;;;;5.47;2.63;;;11.60;72.60;;;;;;5073036;28;20043;-81
2022/10/19 01:17:15;;;;;;;4.38;2.40;;;11.50;73.10;;;;;;5090697;28;20115;-81
2022/10/19 01:20:17;;;;;;;6.00;2.38;;;11.50;73.50;;;;;;5073880;28;20078;-82
2022/10/19 01:23:22;;;;;;;5.28;2.92;;;11.30;74.00;;;;;;5073542;28;20059;-81
2022/10/19 01:26:06;;;;;;;4.53;2.63;;;11.20;74.30;;;;;;5086895;28;20047;-82
2022/10/19 01:28:40;;;;;;;4.10;2.70;;;11.30;74.60;;;;;;5070359;28;20141;-82
2022/10/19 01:31:37;;;;;;;5.55;3.35;;;11.40;74.50;;;;;;5072534;28;20036;-82
2022/10/19 01:34:21;;;;;;;5.15;2.38;;;11.50;74.50;;;;;;5070859;28;20117;-81
2022/10/19 01:37:04;;;;;;;3.55;1.90;;;11.50;74.00;;;;;;5087724;28;20439;-82
2022/10/19 01:39:50;;;;;;;4.13;1.90;;;11.50;73.30;;;;;;5088224;28;20017;-82
2022/10/19 01:42:28;;;;;;;3.20;1.75;;;11.40;73.50;;;;;;5071794;28;20036;-82
2022/10/19 01:45:07;;;;;;;3.05;1.80;;;11.40;74.00;;;;;;5069553;28;20047;-82
2022/10/19 01:48:02;;;;;;;4.05;2.03;;;11.30;74.50;;;;;;5071816;28;20035;-82
2022/10/19 01:50:34;;;;;;;2.45;1.50;;;11.30;74.50;;;;;;5069640;28;20041;-82
2022/10/19 01:53:02;;;;;;;3.17;2.00;;;11.20;74.70;;;;;;5071426;28;20025;-82
2022/10/19 01:55:28;;;;;;;3.67;2.00;;;11.10;74.90;;;;;;5070640;28;20032;-81
2022/10/19 01:57:59;;;;;;;2.17;1.60;;;11.10;75.30;;;;;;5038156;28;20024;-82
2022/10/19 02:00:26;;;;;;;3.88;2.20;;;11.10;75.90;;;;;;5087591;28;20483;-82
2022/10/19 02:02:53;;;;;;;4.20;2.45;;;11.10;74.90;;;;;;5073462;28;20090;-81
2022/10/19 02:05:23;;;;;;;2.90;2.10;;;11.00;75.00;;;;;;5057188;28;20028;-83
2022/10/19 02:07:53;;;;;;;2.38;1.90;;;11.00;75.00;;;;;;5073601;28;20026;-82
2022/10/19 02:10:20;;;;;;;6.05;3.38;;;11.10;74.80;;;;;;5073706;28;20028;-81
2022/10/19 02:12:47;;;;;;;7.63;3.65;;;10.90;75.10;;;;;;5056730;28;20119;-83
2022/10/19 02:15:17;;;;;;;8.55;4.15;;;10.90;75.50;;;;;;5092256;28;20111;-81
2022/10/19 02:17:47;;;;;;;13.68;5.07;;;10.80;75.60;;;;;;5073867;28;20054;-82
2022/10/19 02:20:14;;;;;;;18.67;6.93;;;10.80;75.90;;;;;;5073906;28;20557;-81
2022/10/19 02:22:40;;;;;;;16.13;7.57;;;10.80;75.80;;;;;;5074038;28;20484;-81
2022/10/19 02:25:07;;;;;;;15.55;6.82;;;10.90;75.60;;;;;;5040632;28;20024;-81
2022/10/19 02:27:33;;;;;;;10.45;5.35;;;10.90;75.20;;;;;;5090122;28;20022;-81
2022/10/19 02:29:59;;;;;;;11.32;4.82;;;11.00;75.00;;;;;;5040429;28;20020;-81
2022/10/19 02:32:26;;;;;;;10.23;4.95;;;11.00;74.90;;;;;;5041037;28;20521;-82
2022/10/19 02:34:52;;;;;;;7.07;3.35;;;10.90;74.50;;;;;;5073944;28;20028;-82
2022/10/19 02:37:18;;;;;;;11.23;4.22;;;10.90;74.80;;;;;;5057129;28;20496;-82
2022/10/19 02:39:43;;;;;;;6.68;3.67;;;10.90;74.70;;;;;;5073866;28;20032;-82
2022/10/19 02:42:16;;;;;;;7.80;3.63;;;11.00;74.60;;;;;;5057508;28;20063;-82
2022/10/19 02:44:52;;;;;;;6.63;3.13;;;11.00;74.30;;;;;;5090218;28;20092;-82
2022/10/19 02:47:23;;;;;;;5.32;2.42;;;11.00;74.00;;;;;;5091107;28;20386;-82
2022/10/19 02:49:50;;;;;;;7.10;2.00;;;11.00;74.60;;;;;;5091361;28;20389;-82
2022/10/19 02:52:16;;;;;;;3.45;2.05;;;11.00;73.40;;;;;;5092251;28;20024;-83
2022/10/19 02:54:43;;;;;;;5.38;2.15;;;11.00;73.20;;;;;;5040819;28;20031;-82
2022/10/19 02:57:18;;;;;;;3.13;1.95;;;10.90;73.10;;;;;;5077064;28;20032;-82
2022/10/19 02:59:44;;;;;;;6.22;2.60;;;10.90;73.40;;;;;;5077744;28;20031;-82
2022/10/19 03:02:10;;;;;;;4.90;2.40;;;10.90;73.60;;;;;;5044241;28;20020;-82
2022/10/19 03:04:36;;;;;;;3.35;2.53;;;10.80;73.70;;;;;;5060714;28;20044;-82
2022/10/19 03:07:02;;;;;;;4.22;2.28;;;10.80;73.50;;;;;;5076849;28;20055;-82
2022/10/19 03:09:27;;;;;;;2.85;1.98;;;10.80;74.50;;;;;;5060477;28;20028;-82
2022/10/19 03:11:54;;;;;;;2.92;2.22;;;10.70;73.60;;;;;;5095038;28;20028;-82
2022/10/19 03:14:20;;;;;;;5.38;2.65;;;10.60;73.90;;;;;;5061445;28;20511;-82
2022/10/19 03:16:46;;;;;;;4.03;2.55;;;10.60;74.40;;;;;;5064726;28;20047;-82
2022/10/19 03:19:12;;;;;;;5.43;2.17;;;10.50;74.80;;;;;;5097846;28;20020;-81
2022/10/19 03:21:38;;;;;;;5.03;2.10;;;10.60;75.10;;;;;;5062601;28;20028;-82
2022/10/19 03:24:04;;;;;;;10.23;2.90;;;10.60;75.00;;;;;;5077920;28;20028;-81
2022/10/19 03:26:30;;;;;;;4.95;2.70;;;10.60;74.90;;;;;;5062839;28;20020;-83
2022/10/19 03:28:57;;;;;;;6.38;2.00;;;10.70;74.80;;;;;;5045456;28;20028;-83
2022/10/19 03:31:23;;;;;;;5.57;2.30;;;10.70;75.10;;;;;;5097557;28;20050;-83
2022/10/19 03:33:49;;;;;;;2.85;1.77;;;10.70;75.20;;;;;;5097460;28;20520;-83
2022/10/19 03:36:21;;;;;;;4.38;2.10;;;10.70;75.10;;;;;;5078863;28;20117;-82
2022/10/19 03:38:55;;;;;;;4.00;2.25;;;10.80;75.10;;;;;;5097055;28;20081;-81
2022/10/19 03:41:23;;;;;;;3.67;2.08;;;10.70;75.10;;;;;;5097002;28;20016;-81
2022/10/19 03:43:49;;;;;;;3.42;2.13;;;10.70;75.10;;;;;;5089459;28;20028;-81
2022/10/19 03:46:15;;;;;;;5.00;1.98;;;10.70;75.10;;;;;;5083140;28;20392;-82
2022/10/19 03:48:41;;;;;;;3.67;1.30;;;10.70;75.00;;;;;;5080545;28;20051;-81
2022/10/19 03:51:12;;;;;;;2.38;1.40;;;10.60;74.80;;;;;;5098143;28;20022;-82
2022/10/19 03:53:39;;;;;;;2.30;1.48;;;10.40;75.00;;;;;;5097155;28;20067;-82
2022/10/19 03:56:10;;;;;;;4.03;1.50;;;10.40;75.30;;;;;;5097171;28;20020;-82
2022/10/19 03:58:37;;;;;;;3.60;1.52;;;10.40;75.50;;;;;;5097502;28;20020;-81
2022/10/19 04:01:10;;;;;;;3.83;1.65;;;10.40;75.60;;;;;;5102641;28;20192;-82
2022/10/19 04:03:38;;;;;;;4.13;1.70;;;10.30;75.80;;;;;;5103010;28;20036;-82
2022/10/19 04:06:14;;;;;;;3.28;1.85;;;10.20;76.00;;;;;;5082216;28;20020;-81
2022/10/19 04:08:40;;;;;;;5.93;1.80;;;10.10;75.90;;;;;;5097163;28;20031;-81
2022/10/19 04:11:12;;;;;;;2.97;1.75;;;10.10;76.10;;;;;;5102193;28;20032;-82
2022/10/19 04:13:38;;;;;;;3.50;1.90;;;10.20;76.20;;;;;;5102483;28;20028;-82
2022/10/19 04:16:05;;;;;;;1.70;1.35;;;10.30;76.10;;;;;;5101915;28;20392;-81
2022/10/19 04:18:31;;;;;;;2.78;1.50;;;10.40;75.90;;;;;;5085297;28;20031;-82
2022/10/19 04:21:02;;;;;;;2.95;1.38;;;10.40;76.00;;;;;;5082066;28;20119;-82
2022/10/19 04:23:30;;;;;;;3.03;1.20;;;10.30;75.60;;;;;;5098101;28;20043;-82
2022/10/19 04:26:00;;;;;;;4.25;1.25;;;10.20;75.80;;;;;;5098312;28;20026;-81
2022/10/19 04:28:26;;;;;;;3.40;1.45;;;10.20;76.00;;;;;;5064681;28;20028;-81
2022/10/19 04:30:52;;;;;;;1.38;0.90;;;10.10;76.00;;;;;;5080710;28;20028;-80
2022/10/19 04:33:18;;;;;;;2.50;1.15;;;10.00;76.20;;;;;;5083217;28;20035;-80
2022/10/19 04:35:43;;;;;;;1.88;1.10;;;10.00;76.60;;;;;;5083644;28;20480;-81
2022/10/19 04:38:09;;;;;;;1.58;1.10;;;10.00;76.70;;;;;;5081183;28;20019;-81
2022/10/19 04:40:35;;;;;;;3.65;1.85;;;10.10;76.50;;;;;;5063784;28;20138;-81
2022/10/19 04:43:01;;;;;;;3.05;1.80;;;10.00;76.40;;;;;;5081427;28;20031;-81
2022/10/19 04:45:27;;;;;;;3.60;1.92;;;9.90;76.00;;;;;;5082863;28;20039;-81
2022/10/19 04:47:55;;;;;;;4.93;2.00;;;9.90;76.00;;;;;;5064333;28;20023;-82
2022/10/19 04:50:22;;;;;;;6.93;2.42;;;9.90;76.00;;;;;;5098515;28;20020;-81
2022/10/19 04:52:47;;;;;;;4.43;2.30;;;9.90;75.90;;;;;;5099350;28;20027;-82
2022/10/19 04:55:13;;;;;;;3.83;2.45;;;9.90;76.00;;;;;;5101737;28;20110;-82
2022/10/19 04:57:39;;;;;;;6.75;2.38;;;9.80;75.70;;;;;;5082978;28;20032;-82
2022/10/19 05:00:05;;;;;;;4.15;2.05;;;9.80;75.90;;;;;;5065539;28;20031;-81
2022/10/19 05:02:31;;;;;;;3.75;1.80;;;9.90;75.70;;;;;;5098611;28;20031;-82
2022/10/19 05:04:57;;;;;;;6.15;2.40;;;9.90;75.60;;;;;;5076578;28;20401;-82
2022/10/19 05:07:23;;;;;;;3.90;2.08;;;9.90;75.50;;;;;;5078514;28;20024;-81
2022/10/19 05:09:48;;;;;;;3.97;2.35;;;9.80;75.20;;;;;;5078258;28;20036;-82
2022/10/19 05:12:14;;;;;;;3.53;2.00;;;9.80;75.40;;;;;;5078111;28;20020;-81
2022/10/19 05:14:40;;;;;;;4.57;2.00;;;9.80;75.50;;;;;;5078198;28;20035;-81
2022/10/19 05:17:08;;;;;;;3.53;1.77;;;9.90;75.70;;;;;;5078322;28;20051;-82
2022/10/19 05:19:34;;;;;;;2.50;1.60;;;9.70;75.10;;;;;;5078372;28;20024;-82
2022/10/19 05:21:59;;;;;;;3.15;1.88;;;9.70;75.40;;;;;;5060252;28;20025;-81
2022/10/19 05:24:25;;;;;;;4.10;2.00;;;9.60;75.70;;;;;;5075944;28;20020;-81
2022/10/19 05:26:51;;;;;;;6.10;2.45;;;9.70;76.00;;;;;;5059727;28;20028;-83
2022/10/19 05:29:17;;;;;;;3.92;2.20;;;9.70;76.10;;;;;;5060354;28;20389;-83
2022/10/19 05:31:43;;;;;;;4.97;2.17;;;9.70;76.10;;;;;;5094728;28;20012;-83
2022/10/19 05:34:08;;;;;;;2.08;1.70;;;9.80;76.00;;;;;;5095259;28;20020;-81
2022/10/19 05:36:36;;;;;;;5.40;2.00;;;9.80;75.80;;;;;;5077813;28;20590;-81
2022/10/19 05:39:10;;;;;;;3.28;1.80;;;9.70;76.10;;;;;;5078785;28;20027;-82
2022/10/19 05:41:36;;;;;;;3.22;2.10;;;9.50;76.40;;;;;;5094313;28;20359;-82
2022/10/19 05:44:03;;;;;;;3.67;2.10;;;9.50;76.80;;;;;;5060220;28;20067;-82
2022/10/19 05:46:30;;;;;;;3.28;1.60;;;9.60;76.70;;;;;;5095320;28;20127;-83
2022/10/19 05:48:57;;;;;;;4.60;1.90;;;9.60;76.20;;;;;;5059302;28;20350;-83
2022/10/19 05:51:24;;;;;;;6.13;2.10;;;9.50;76.60;;;;;;5057239;28;20061;-82
2022/10/19 05:53:51;;;;;;;4.40;2.30;;;9.50;76.80;;;;;;5075397;28;20024;-82
2022/10/19 05:56:20;;;;;;;2.83;1.70;;;9.40;77.10;;;;;;5075086;28;20088;-82
2022/10/19 05:58:47;;;;;;;5.13;1.98;;;9.40;76.80;;;;;;5091508;28;20028;-82
2022/10/19 06:01:13;;;;;;;4.13;1.48;;;9.40;76.90;;;;;;5092778;28;20017;-82
2022/10/19 06:03:39;;;;;;;3.17;1.85;;;9.30;76.40;;;;;;5074793;28;20059;-82
2022/10/19 06:06:06;;;;;;;3.47;2.10;;;9.30;76.50;;;;;;5058519;28;20027;-82
2022/10/19 06:08:32;;;;;;;4.63;2.13;;;9.40;76.80;;;;;;5075389;28;20046;-82
2022/10/19 06:11:18;;;;;;;8.73;2.65;;;9.40;76.70;;;;;;5058670;28;20032;-82
2022/10/19 06:13:48;;;;;;;4.65;2.10;;;9.40;76.90;;;;;;5092604;28;20392;-80
2022/10/19 06:16:15;;;;;;;5.32;2.00;;;9.30;77.10;;;;;;5093785;28;20024;-81
2022/10/19 06:18:42;;;;;;;3.60;1.92;;;9.30;77.10;;;;;;5092811;28;20107;-80
2022/10/19 06:21:17;;;;;;;5.15;2.17;;;9.20;77.20;;;;;;5092475;28;20031;-81
2022/10/19 06:23:43;;;;;;;5.05;2.30;;;9.30;77.40;;;;;;5092227;28;20020;-80
2022/10/19 06:26:13;;;;;;;5.65;2.25;;;9.40;77.30;;;;;;5074475;28;20448;-81
2022/10/19 06:28:40;;;;;;;3.95;2.08;;;9.40;77.20;;;;;;5093042;28;20028;-81
2022/10/19 06:31:07;;;;;;;4.28;2.38;;;9.50;77.10;;;;;;5078929;28;20114;-81
2022/10/19 06:33:35;;;;;;;5.05;2.63;;;9.50;76.80;;;;;;5099618;28;20393;-80
2022/10/19 06:36:21;;;;;;;5.85;2.75;;;9.40;77.10;;;;;;5098049;28;20086;-80
2022/10/19 06:38:48;;;;;;;6.15;2.35;;;9.50;77.40;;;;;;5099184;28;20134;-81
2022/10/19 06:41:14;;;;;;;4.18;2.70;;;9.50;77.40;;;;;;5080788;28;20032;-79
2022/10/19 06:43:41;;;;;;;5.25;2.70;;;9.40;77.50;;;;;;5097218;28;20498;-79
2022/10/19 06:46:14;;;;;;;6.07;2.78;;;9.40;77.70;;;;;;5081372;28;20017;-80
2022/10/19 06:48:40;;;;;;;7.53;2.75;;;9.40;78.80;;;;;;5100047;28;20028;-81
2022/10/19 06:51:06;;;;;;;4.85;2.72;;;9.40;78.50;;;;;;5098823;28;20139;-80
2022/10/19 06:53:33;;;;;;;5.95;2.67;;;9.40;78.70;;;;;;5100733;28;20036;-80
2022/10/19 06:56:01;;;;;;;4.07;2.90;;;9.50;78.90;;;;;;5099659;28;20028;-81
2022/10/19 06:58:26;;;;;;;5.65;2.80;;;9.50;78.90;;;;;;5096802;28;20024;-79
2022/10/19 07:00:59;;;;;;;6.90;3.20;;;9.50;79.20;;;;;;5080273;28;20028;-79
2022/10/19 07:03:26;;;;;;;7.63;3.70;;;9.50;79.60;;;;;;5080915;28;20127;-81
2022/10/19 07:05:57;;;;;;;7.47;3.55;;;9.50;79.90;;;;;;5096894;28;20111;-80
2022/10/19 07:08:24;;;;;;;6.70;3.55;;;9.60;80.00;;;;;;5098494;28;20024;-80
2022/10/19 07:10:51;;;;;;;6.72;3.97;;;9.70;80.00;;;;;;5097328;28;20051;-81
2022/10/19 07:13:17;;;;;;;6.30;3.55;;;9.80;80.50;;;;;;5081731;28;20471;-80
2022/10/19 07:15:43;;;;;;;6.53;4.00;;;9.80;80.40;;;;;;5098636;28;20021;-79
2022/10/19 07:18:08;;;;;;;6.43;3.95;;;9.80;80.50;;;;;;5080977;28;20575;-80
2022/10/19 07:20:34;;;;;;;7.85;4.20;;;9.90;80.80;;;;;;5079676;28;20469;-81
2022/10/19 07:23:01;;;;;;;5.32;3.65;;;10.00;81.00;;;;;;5064180;28;20110;-81
2022/10/19 07:25:28;;;;;;;8.23;4.10;;;10.10;81.20;;;;;;5081155;28;20032;-81
2022/10/19 07:27:57;;;;;;;9.90;4.47;;;10.10;81.40;;;;;;5060739;28;20452;-81
2022/10/19 07:30:22;;;;;;;10.02;4.38;;;10.20;81.50;;;;;;5059580;28;20036;-82
2022/10/19 07:32:51;;;;;;;8.55;4.10;;;10.30;81.60;;;;;;5061007;28;20091;-80
2022/10/19 07:35:18;;;;;;;7.63;3.55;;;10.30;81.60;;;;;;5061006;28;20082;-80
2022/10/19 07:37:43;;;;;;;8.43;3.83;;;10.40;82.10;;;;;;5060053;28;20055;-80
2022/10/19 07:40:11;;;;;;;8.70;4.30;;;10.40;82.30;;;;;;5059273;28;20032;-80
2022/10/19 07:42:38;;;;;;;6.70;3.75;;;10.50;82.80;;;;;;5058010;28;20029;-80
2022/10/19 07:45:04;;;;;;;9.68;4.13;;;10.60;83.10;;;;;;5039034;28;20032;-80
2022/10/19 07:47:29;;;;;;;8.30;3.58;;;10.70;83.50;;;;;;5056670;28;20036;-80
2022/10/19 07:49:55;;;;;;;6.93;4.20;;;10.70;83.30;;;;;;5056135;28;20039;-80
2022/10/19 07:52:20;;;;;;;8.23;3.97;;;10.80;83.80;;;;;;5056769;28;20094;-79
2022/10/19 07:54:48;;;;;;;8.73;4.15;;;10.90;84.10;;;;;;5056171;28;20029;-81
2022/10/19 07:57:15;;;;;;;6.35;3.80;;;11.00;84.50;;;;;;5056263;28;20051;-80
2022/10/19 07:59:40;;;;;;;9.55;3.90;;;11.00;84.40;;;;;;5072652;28;20523;-81
2022/10/19 08:02:14;;;;;;;7.22;3.55;;;11.10;84.70;;;;;;5076291;28;20024;-81
2022/10/19 08:04:40;;;;;;;8.50;3.40;;;11.20;84.50;;;;;;5110948;28;20063;-80
2022/10/19 08:07:12;;;;;;;9.52;3.63;;;11.20;84.20;;;;;;5096366;28;20019;-80
2022/10/19 08:09:39;;;;;;;6.57;2.97;;;11.40;84.30;;;;;;5079429;28;20104;-80
2022/10/19 08:12:06;;;;;;;6.22;2.90;;;11.40;84.60;;;;;;5111604;27;20122;-84
2022/10/19 08:14:34;;;;;;;6.72;3.40;;;11.50;84.20;;;;;;5098142;28;20032;-84
2022/10/19 08:17:00;;;;;;;6.97;3.35;;;11.60;84.50;;;;;;5100614;28;20069;-85
2022/10/19 08:19:25;;;;;;;7.20;3.53;;;11.70;84.00;;;;;;5083451;28;20061;-84
2022/10/19 08:21:52;;;;;;;5.55;2.75;;;11.80;84.50;;;;;;5079567;28;20032;-84
2022/10/19 08:24:21;;;;;;;5.13;2.90;;;11.90;84.80;;;;;;5080209;28;20503;-84
2022/10/19 08:26:49;;;;;;;7.20;2.75;;;12.00;84.40;;;;;;5080326;28;20032;-86
2022/10/19 08:29:19;;;;;;;6.38;3.15;;;12.10;84.00;;;;;;5080607;28;20388;-86
2022/10/19 08:31:48;;;;;;;5.03;3.10;;;12.20;83.90;;;;;;5079554;28;20375;-85
2022/10/19 08:34:14;;;;;;;7.45;3.45;;;12.30;83.90;;;;;;5081119;28;20028;-85
2022/10/19 08:36:40;;;;;;;8.13;3.17;;;12.40;83.60;;;;;;5098468;28;20072;-85
2022/10/19 08:39:11;;;;;;;5.95;3.47;;;12.50;83.50;;;;;;5078258;28;20467;-85
2022/10/19 08:41:39;;;;;;;10.00;4.03;;;12.60;83.40;;;;;;5078404;28;20028;-86
2022/10/19 08:44:27;;;;;;;6.50;3.45;;;12.60;83.10;;;;;;5079236;28;20035;-85
2022/10/19 08:47:05;;;;;;;7.25;3.72;;;12.80;82.80;;;;;;5080182;28;20031;-86
2022/10/19 08:49:31;;;;;;;5.95;3.22;;;12.80;82.10;;;;;;5080023;28;20015;-86
2022/10/19 08:52:00;;;;;;;12.40;3.72;;;12.90;82.20;;;;;;5080931;28;20016;-85
2022/10/19 08:54:50;;;;;;;6.75;3.10;;;13.00;81.90;;;;;;5100493;28;20000;-86
2022/10/19 08:57:59;;;;;;;5.88;3.28;;;13.10;82.80;;;;;;5079591;28;20050;-82
2022/10/19 09:00:49;;;;;;;5.80;2.88;;;13.20;81.40;;;;;;5097102;28;20073;-81
2022/10/19 09:03:25;;;;;;;6.55;3.28;;;13.30;80.50;;;;;;5077249;28;20040;-81
2022/10/19 09:06:21;;;;;;;5.65;2.63;;;13.40;80.20;;;;;;5096934;28;20016;-83
2022/10/19 09:08:52;;;;;;;6.20;2.92;;;13.40;79.80;;;;;;5079120;28;20040;-82
2022/10/19 09:11:37;;;;;;;10.02;2.85;;;13.50;79.70;;;;;;5081405;28;20028;-81
2022/10/19 09:14:19;;;;;;;7.15;2.65;;;13.50;78.90;;;;;;5080250;28;20518;-83
2022/10/19 09:16:45;;;;;;;5.40;2.47;;;13.50;78.40;;;;;;5097334;28;20016;-82
2022/10/19 09:19:31;;;;;;;7.03;2.75;;;13.60;79.40;;;;;;5061675;28;20081;-81
2022/10/19 09:22:15;;;;;;;5.55;2.13;;;13.80;78.80;;;;;;5060444;28;20489;-82
2022/10/19 09:24:48;;;;;;;6.53;2.08;;;13.90;78.30;;;;;;5076249;28;20016;-79
2022/10/19 09:27:27;;;;;;;5.47;2.60;;;14.00;78.60;;;;;;5076466;28;20024;-80
2022/10/19 09:30:02;;;;;;;4.00;1.75;;;14.10;76.90;;;;;;5096973;28;20024;-80
2022/10/19 09:32:38;;;;;;;7.38;2.10;;;14.10;76.50;;;;;;5117069;28;20117;-78
2022/10/19 09:35:24;;;;;;;4.88;1.90;;;14.20;77.30;;;;;;5114968;28;20358;-79
2022/10/19 09:37:56;;;;;;;5.60;2.20;;;14.30;76.90;;;;;;5113480;27;20042;-86
2022/10/19 09:40:26;;;;;;;5.97;1.98;;;14.50;77.10;;;;;;5117279;27;20504;-86
2022/10/19 09:43:02;;;;;;;3.95;1.75;;;14.50;76.10;;;;;;5103938;28;20034;-86
2022/10/19 09:45:56;;;;;;;4.13;1.98;;;14.60;74.70;;;;;;5064102;28;20035;-85
2022/10/19 09:48:48;;;;;;;3.78;1.90;;;14.60;75.40;;;;;;5111537;27;20440;-86
2022/10/19 09:51:16;;;;;;;4.93;1.58;;;14.60;74.20;;;;;;5091934;28;20095;-86
2022/10/19 09:53:52;;;;;;;6.47;1.77;;;14.70;73.60;;;;;;5075044;28;20028;-85
2022/10/19 09:56:24;;;;;;;5.60;1.80;;;14.60;73.40;;;;;;5096031;27;20020;-86
2022/10/19 09:58:53;;;;;;;5.20;1.30;;;14.60;73.50;;;;;;5132470;27;20027;-86
2022/10/19 10:01:34;;;;;;;4.57;1.73;;;14.70;72.90;;;;;;5114609;27;20495;-85
2022/10/19 10:04:07;;;;;;;5.03;1.50;;;14.70;73.40;;;;;;5114923;27;20121;-84
2022/10/19 10:06:34;;;;;;;4.50;1.23;;;14.70;71.40;;;;;;5097066;27;20488;-85
2022/10/19 10:09:00;;;;;;;5.53;1.50;;;14.70;71.90;;;;;;5114802;27;20076;-85
2022/10/19 10:11:35;;;;;;;5.63;1.60;;;14.70;71.60;;;;;;5114996;27;20037;-86
2022/10/19 10:14:34;;;;;;;4.95;1.30;;;14.70;71.40;;;;;;5114131;27;20053;-86
2022/10/19 10:17:05;;;;;;;2.00;1.13;;;14.70;72.10;;;;;;5072407;28;20043;-86
2022/10/19 10:19:34;;;;;;;2.60;1.20;;;14.80;71.10;;;;;;5088518;28;20142;-85
2022/10/19 10:22:02;;;;;;;5.28;1.55;;;14.70;71.00;;;;;;5078676;28;20026;-86
2022/10/19 10:24:33;;;;;;;5.00;1.23;;;14.70;72.30;;;;;;5080758;28;21518;-84
2022/10/19 10:27:01;;;;;;;8.15;1.60;;;14.70;72.10;;;;;;5088633;28;20022;-85
2022/10/19 10:29:29;;;;;;;3.08;1.60;;;14.70;72.10;;;;;;5093936;28;20565;-85
2022/10/19 10:32:11;;;;;;;5.88;2.00;;;14.80;72.10;;;;;;5076303;28;20020;-85
2022/10/19 10:34:40;;;;;;;4.80;1.48;;;14.90;71.70;;;;;;5074327;28;20028;-86
2022/10/19 10:37:12;;;;;;;6.78;1.83;;;14.90;72.50;;;;;;5074323;28;20081;-86
2022/10/19 10:39:43;;;;;;;3.15;0.98;;;15.00;72.10;;;;;;5074896;28;20382;-87
2022/10/19 10:42:13;;;;;;;4.15;1.45;;;15.00;71.80;;;;;;5041565;28;20047;-86
2022/10/19 10:44:48;;;;;;;6.47;1.20;;;15.00;71.00;;;;;;5093069;28;20036;-86
2022/10/19 10:47:16;;;;;;;4.97;1.63;;;15.00;70.80;;;;;;5074642;28;20016;-86
2022/10/19 10:49:51;;;;;;;4.47;1.48;;;15.10;71.60;;;;;;5073772;28;20051;-86
2022/10/19 10:52:18;;;;;;;5.50;1.90;;;15.10;71.10;;;;;;5058760;28;20036;-86
2022/10/19 10:55:04;;;;;;;6.75;1.50;;;15.20;71.50;;;;;;5074218;28;20017;-87
2022/10/19 10:57:34;;;;;;;5.22;1.70;;;15.30;71.00;;;;;;5074429;28;20496;-85
2022/10/19 11:00:16;;;;;;;4.05;1.27;;;15.30;70.20;;;;;;5074795;28;20074;-84
2022/10/19 11:03:06;;;;;;;2.90;1.40;;;15.30;71.00;;;;;;5074178;28;20020;-85
2022/10/19 11:05:45;;;;;;;5.18;1.75;;;15.30;70.10;;;;;;5074565;28;20047;-85
2022/10/19 11:08:11;;;;;;;2.83;1.45;;;15.40;70.40;;;;;;5074533;28;20481;-85
2022/10/19 11:11:08;;;;;;;6.70;1.33;;;15.50;70.40;;;;;;5074212;28;20028;-84
2022/10/19 11:13:45;;;;;;;3.25;1.15;;;15.60;69.40;;;;;;5073735;28;20040;-84
2022/10/19 11:16:16;;;;;;;7.18;1.48;;;15.70;68.70;;;;;;5074705;28;20035;-84
2022/10/19 11:18:43;;;;;;;2.17;1.10;;;15.70;68.60;;;;;;5078115;28;20020;-85
2022/10/19 11:21:15;;;;;;;2.55;1.33;;;15.80;68.40;;;;;;5078483;28;20028;-85
2022/10/19 11:23:41;;;;;;;6.03;1.23;;;15.80;67.00;;;;;;5078131;28;20043;-85
2022/10/19 11:26:18;;;;;;;3.33;1.40;;;15.70;67.70;;;;;;5078272;28;20024;-84
2022/10/19 11:28:59;;;;;;;3.65;1.20;;;15.80;66.80;;;;;;5096483;28;20039;-84
2022/10/19 11:31:55;;;;;;;4.60;1.13;;;15.80;66.60;;;;;;5078646;28;20020;-85
2022/10/19 11:34:40;;;;;;;3.38;1.67;;;15.70;65.90;;;;;;5077468;28;20040;-85
2022/10/19 11:37:20;;;;;;;5.38;1.50;;;15.70;67.30;;;;;;5077431;28;20031;-85
2022/10/19 11:39:46;;;;;;;2.90;1.20;;;15.80;66.20;;;;;;5077507;28;20386;-85
2022/10/19 11:42:14;;;;;;;5.00;1.55;;;15.80;66.90;;;;;;5095690;28;20044;-85
2022/10/19 11:45:01;;;;;;;2.88;1.40;;;15.90;67.60;;;;;;5103770;27;20023;-85
2022/10/19 11:47:54;;;;;;;3.72;1.23;;;16.10;67.50;;;;;;5104564;28;20024;-85
2022/10/19 11:50:35;;;;;;;5.07;1.40;;;16.20;67.00;;;;;;5078404;28;20028;-85
2022/10/19 11:53:26;;;;;;;5.78;1.50;;;16.30;67.10;;;;;;5079373;28;20032;-85
2022/10/19 11:56:08;;;;;;;3.53;1.30;;;16.50;66.10;;;;;;5093370;28;20384;-85
2022/10/19 11:59:06;;;;;;;3.72;1.30;;;16.50;65.40;;;;;;5077211;28;20534;-86
2022/10/19 12:01:39;;;;;;;2.25;1.13;;;16.50;64.60;;;;;;5075610;28;20410;-85
2022/10/19 12:04:37;;;;;;;2.78;1.40;;;16.50;64.60;;;;;;5094192;28;20048;-86
2022/10/19 12:07:47;;;;;;;3.72;1.15;;;16.60;64.90;;;;;;5053345;28;20059;-86
2022/10/19 12:10:28;;;;;;;3.92;1.20;;;16.50;64.50;;;;;;5057710;28;20074;-86
2022/10/19 12:13:00;;;;;;;2.38;1.30;;;16.60;64.80;;;;;;5094839;28;20184;-87
2022/10/19 12:15:52;;;;;;;4.00;1.50;;;16.70;64.40;;;;;;5076527;28;20032;-85
2022/10/19 12:18:45;;;;;;;4.50;1.60;;;16.80;64.60;;;;;;5075968;28;20191;-85
2022/10/19 12:21:21;;;;;;;3.15;1.60;;;16.80;64.40;;;;;;5076665;28;20021;-86
2022/10/19 12:23:48;;;;;;;6.97;1.60;;;16.90;63.90;;;;;;5076602;28;20020;-86
2022/10/19 12:26:19;;;;;;;4.07;1.60;;;16.90;63.60;;;;;;5059822;28;20023;-86
2022/10/19 12:28:54;;;;;;;3.07;1.47;;;16.90;64.00;;;;;;5075531;28;20024;-86
2022/10/19 12:31:23;;;;;;;2.17;1.25;;;16.90;64.00;;;;;;5075753;28;20024;-85
2022/10/19 12:34:07;;;;;;;3.75;1.50;;;16.90;64.30;;;;;;5076399;28;20051;-86
2022/10/19 12:36:41;;;;;;;4.28;1.73;;;16.90;61.90;;;;;;5105530;27;20022;-86
2022/10/19 12:39:41;;;;;;;3.38;1.58;;;16.80;62.70;;;;;;5117260;27;20031;-85
2022/10/19 12:42:23;;;;;;;3.65;1.25;;;16.80;63.50;;;;;;5117436;27;20027;-86
2022/10/19 12:44:55;;;;;;;2.72;1.33;;;16.70;63.50;;;;;;5117595;27;20020;-86
2022/10/19 12:47:23;;;;;;;3.90;1.63;;;16.80;63.80;;;;;;5116355;27;20043;-86
2022/10/19 12:49:51;;;;;;;4.95;1.52;;;16.70;63.70;;;;;;5115931;27;20023;-86
2022/10/19 12:52:35;;;;;;;3.80;1.65;;;16.70;63.90;;;;;;5116380;27;20476;-86
2022/10/19 12:55:20;;;;;;;2.53;1.38;;;16.70;64.10;;;;;;5134639;27;20450;-86
2022/10/19 12:57:54;;;;;;;3.38;1.67;;;16.70;64.50;;;;;;5116277;27;20023;-86
2022/10/19 13:00:35;;;;;;;4.82;1.80;;;16.80;64.60;;;;;;5101696;28;20106;-84
2022/10/19 13:03:23;;;;;;;4.43;1.40;;;16.80;63.50;;;;;;5080058;27;20481;-85
2022/10/19 13:05:59;;;;;;;8.65;1.50;;;16.90;63.80;;;;;;5116412;27;20019;-84
2022/10/19 13:08:41;;;;;;;4.55;1.42;;;16.90;62.90;;;;;;5116273;27;20118;-84
2022/10/19 13:11:13;;;;;;;5.50;1.45;;;17.10;64.00;;;;;;5116107;27;20511;-84
2022/10/19 13:13:54;;;;;;;;;;;17.30;63.60;;;;;;5116470;27;20056;-84